| time (UTC) | temp F | wind direction | speed MPH | gust MPH | rain 1hr in | rain 24hr in | rain mn in | humidity % | barometer mb |
| 20260902045505 | 60 | 351 | 11.0 | 22.0 | 0.00 | 0.00 | 0.00 | 59 | 1012.8 |
| 20260902045008 | 60 | 3 | 7.0 | 22.0 | 0.00 | 0.00 | 0.00 | 61 | 1012.8 |
| 20260902044513 | 60 | 337 | 9.0 | 17.0 | 0.00 | 0.00 | 0.00 | 62 | 1012.8 |
| 20260902044009 | 60 | 345 | 9.0 | 21.0 | 0.00 | 0.00 | 0.00 | 61 | 1012.9 |
| 20260902043510 | 60 | 340 | 11.0 | 21.0 | 0.00 | 0.00 | 0.00 | 59 | 1012.9 |
| 20260902043017 | 61 | 4 | 11.0 | 21.0 | 0.00 | 0.00 | 0.00 | 60 | 1012.8 |
| 20260902042511 | 61 | 346 | 13.0 | 21.0 | 0.00 | 0.00 | 0.00 | 61 | 1012.7 |
| 20260902042012 | 60 | 329 | 12.0 | 20.0 | 0.00 | 0.00 | 0.00 | 60 | 1012.8 |
| 20260902041510 | 61 | 338 | 9.0 | 18.0 | 0.00 | 0.00 | 0.00 | 63 | 1012.7 |
| 20260902041016 | 60 | 4 | 11.0 | 21.0 | 0.00 | 0.00 | 0.00 | 62 | 1012.8 |
| 20260902040511 | 61 | 16 | 12.0 | 21.0 | 0.00 | 0.00 | 0.00 | 61 | 1012.8 |
| 20260902040030 | 60 | 336 | 11.0 | 18.0 | 0.00 | 0.00 | 0.00 | 60 | 1012.8 |
| 20260902035512 | 60 | 334 | 10.0 | 18.0 | 0.00 | 0.00 | 0.00 | 60 | 1012.8 |
| 20260902035010 | 62 | 342 | 11.0 | 20.0 | 0.00 | 0.00 | 0.00 | 61 | 1012.9 |
| 20260902034530 | 61 | 336 | 10.0 | 20.0 | 0.00 | 0.00 | 0.00 | 61 | 1012.9 |
| 20260902034007 | 61 | 312 | 9.0 | 16.0 | 0.00 | 0.00 | 0.00 | 66 | 1013.0 |
| 20260902033512 | 59 | 333 | 1.0 | 5.0 | 0.00 | 0.00 | 0.00 | 71 | 1013.1 |
| 20260902033016 | 58 | 141 | 0.0 | 4.0 | 0.00 | 0.00 | 0.00 | 70 | 1013.2 |
| 20260902032512 | 58 | 139 | 2.0 | 5.0 | 0.00 | 0.00 | 0.00 | 71 | 1013.3 |
| 20260902032023 | 57 | 132 | 1.0 | 6.0 | 0.00 | 0.00 | 0.00 | 71 | 1013.3 |
| 20260902031527 | 58 | 195 | 4.0 | 6.0 | 0.00 | 0.00 | 0.00 | 71 | 1013.3 |
| 20260902031011 | 58 | 135 | 3.0 | 6.0 | 0.00 | 0.00 | 0.00 | 71 | 1013.4 |
| 20260902030514 | 58 | 105 | 3.0 | 6.0 | 0.00 | 0.00 | 0.00 | 71 | 1013.6 |
| 20260902030024 | 58 | 204 | 2.0 | 6.0 | 0.00 | 0.00 | 0.00 | 72 | 1013.6 |
| 20260902025519 | 58 | 175 | 4.0 | 7.0 | 0.00 | 0.00 | 0.00 | 71 | 1013.7 |
| 20260902025014 | 57 | 260 | 1.0 | 7.0 | 0.00 | 0.00 | 0.00 | 72 | 1013.7 |
| 20260902024521 | 57 | 209 | 1.0 | 5.0 | 0.00 | 0.00 | 0.00 | 72 | 1014.0 |
| 20260902024019 | 57 | 128 | 1.0 | 4.0 | 0.00 | 0.00 | 0.00 | 72 | 1014.1 |
| 20260902023516 | 57 | 214 | 2.0 | 6.0 | 0.00 | 0.00 | 0.00 | 72 | 1014.2 |
| 20260902023033 | 56 | 175 | 2.0 | 6.0 | 0.00 | 0.00 | 0.00 | 74 | 1014.1 |
| 20260902022504 | 56 | 193 | 2.0 | 10.0 | 0.00 | 0.00 | 0.00 | 73 | 1014.4 |
| 20260902022005 | 55 | 232 | 5.0 | 10.0 | 0.00 | 0.00 | 0.00 | 72 | 1014.5 |
| 20260902021525 | 56 | 219 | 4.0 | 9.0 | 0.00 | 0.00 | 0.00 | 72 | 1014.5 |
| 20260902021007 | 56 | 191 | 3.0 | 9.0 | 0.00 | 0.00 | 0.00 | 73 | 1014.5 |
| 20260902020504 | 56 | 192 | 4.0 | 9.0 | 0.00 | 0.00 | 0.00 | 73 | 1014.7 |
| 20260902020004 | 56 | 208 | 3.0 | 9.0 | 0.00 | 0.00 | 0.00 | 70 | 1014.8 |
| 20260902015504 | 57 | 147 | 1.0 | 3.0 | 0.00 | 0.00 | 0.00 | 70 | 1014.9 |
| 20260902015004 | 57 | 71 | 0.0 | 2.0 | 0.00 | 0.00 | 0.00 | 71 | 1014.9 |
| 20260902014507 | 56 | 70 | 0.0 | 3.0 | 0.00 | 0.00 | 0.00 | 73 | 1015.0 |
| 20260902014006 | 55 | 101 | 1.0 | 7.0 | 0.00 | 0.00 | 0.00 | 72 | 1015.1 |
| 20260902013510 | 55 | 98 | 3.0 | 8.0 | 0.00 | 0.00 | 0.00 | 73 | 1015.2 |
| 20260902013007 | 55 | 121 | 5.0 | 8.0 | 0.00 | 0.00 | 0.00 | 73 | 1015.2 |
| 20260902012508 | 55 | 77 | 2.0 | 6.0 | 0.00 | 0.00 | 0.00 | 74 | 1015.2 |
| 20260902012008 | 54 | 72 | 1.0 | 9.0 | 0.00 | 0.00 | 0.00 | 74 | 1015.2 |
| 20260902011510 | 54 | 100 | 3.0 | 9.0 | 0.00 | 0.00 | 0.00 | 75 | 1015.3 |
| 20260902011012 | 54 | 210 | 3.0 | 5.0 | 0.00 | 0.00 | 0.00 | 77 | 1015.5 |
| 20260902010503 | 53 | 192 | 3.0 | 6.0 | 0.00 | 0.00 | 0.00 | 76 | 1015.5 |
| 20260902010023 | 53 | 142 | 3.0 | 9.0 | 0.00 | 0.00 | 0.00 | 76 | 1015.6 |
| 20260902005511 | 53 | 117 | 2.0 | 9.0 | 0.00 | 0.00 | 0.00 | 76 | 1015.7 |
| 20260902005005 | 53 | 172 | 3.0 | 8.0 | 0.00 | 0.00 | 0.00 | 77 | 1015.8 |
| 20260902004504 | 52 | 213 | 2.0 | 8.0 | 0.00 | 0.00 | 0.00 | 77 | 1015.9 |
| 20260902004006 | 52 | 166 | 4.0 | 8.0 | 0.00 | 0.00 | 0.00 | 78 | 1015.9 |
| 20260902003504 | 52 | 180 | 3.0 | 7.0 | 0.00 | 0.00 | 0.00 | 78 | 1015.9 |
| 20260902003010 | 52 | 198 | 4.0 | 7.0 | 0.00 | 0.00 | 0.00 | 79 | 1015.8 |
| 20260902002505 | 51 | 167 | 3.0 | 6.0 | 0.00 | 0.00 | 0.00 | 79 | 1015.9 |
| 20260902002010 | 51 | 180 | 3.0 | 8.0 | 0.00 | 0.00 | 0.00 | 78 | 1016.0 |
| 20260902001514 | 51 | 169 | 5.0 | 8.0 | 0.00 | 0.00 | 0.00 | 79 | 1016.1 |
| 20260902001006 | 51 | 129 | 3.0 | 9.0 | 0.00 | 0.00 | 0.00 | 79 | 1016.1 |
| 20260902000512 | 51 | 180 | 4.0 | 9.0 | 0.00 | 0.00 | 0.00 | 79 | 1016.0 |
| 20260902000015 | 51 | 195 | 4.0 | 9.0 | 0.00 | 0.00 | 0.00 | 80 | 1016.1 |
| 20260901235514 | 50 | 172 | 5.0 | 8.0 | 0.00 | 0.00 | 0.00 | 80 | 1016.1 |
| 20260901235011 | 50 | 185 | 5.0 | 8.0 | 0.00 | 0.00 | 0.00 | 80 | 1016.0 |
| 20260901234510 | 50 | 198 | 5.0 | 9.0 | 0.00 | 0.00 | 0.00 | 81 | 1015.9 |
| 20260901234018 | 50 | 159 | 5.0 | 9.0 | 0.00 | 0.00 | 0.00 | 81 | 1016.0 |
| 20260901233507 | 50 | 193 | 4.0 | 8.0 | 0.00 | 0.00 | 0.00 | 81 | 1016.0 |
| 20260901233006 | 50 | 160 | 4.0 | 8.0 | 0.00 | 0.00 | 0.00 | 81 | 1016.1 |
| 20260901232506 | 51 | 172 | 3.0 | 6.0 | 0.00 | 0.00 | 0.00 | 82 | 1016.1 |
| 20260901232004 | 51 | 143 | 3.0 | 8.0 | 0.00 | 0.00 | 0.00 | 82 | 1016.1 |
| 20260901231510 | 50 | 175 | 5.0 | 8.0 | 0.00 | 0.00 | 0.00 | 82 | 1016.1 |
| 20260901231005 | 50 | 149 | 4.0 | 9.0 | 0.00 | 0.00 | 0.00 | 82 | 1016.1 |
| 20260901230506 | 51 | 159 | 4.0 | 9.0 | 0.00 | 0.00 | 0.00 | 82 | 1016.1 |
| 20260901230022 | 51 | 185 | 4.0 | 8.0 | 0.00 | 0.00 | 0.00 | 82 | 1016.1 |
| 20260901225513 | 51 | 199 | 4.0 | 9.0 | 0.00 | 0.00 | 0.00 | 82 | 1016.0 |
| 20260901225005 | 51 | 194 | 6.0 | 9.0 | 0.00 | 0.00 | 0.00 | 82 | 1016.1 |
| 20260901224529 | 51 | 196 | 5.0 | 8.0 | 0.00 | 0.00 | 0.00 | 82 | 1016.1 |
| 20260901224010 | 51 | 196 | 4.0 | 8.0 | 0.00 | 0.00 | 0.00 | 83 | 1016.1 |
| 20260901223513 | 51 | 189 | 3.0 | 5.0 | 0.00 | 0.00 | 0.00 | 83 | 1016.1 |
| 20260901223024 | 51 | 148 | 2.0 | 5.0 | 0.00 | 0.00 | 0.00 | 83 | 1016.1 |
| 20260901222508 | 51 | 104 | 3.0 | 5.0 | 0.00 | 0.00 | 0.00 | 83 | 1016.0 |
| 20260901222016 | 51 | 113 | 3.0 | 5.0 | 0.00 | 0.00 | 0.00 | 83 | 1016.1 |
| 20260901221521 | 50 | 133 | 4.0 | 5.0 | 0.00 | 0.00 | 0.00 | 83 | 1016.0 |
| 20260901221008 | 50 | 113 | 1.0 | 4.0 | 0.00 | 0.00 | 0.00 | 83 | 1015.9 |
| 20260901220505 | 50 | 160 | 1.0 | 4.0 | 0.00 | 0.00 | 0.00 | 83 | 1015.9 |
| 20260901220027 | 50 | 135 | 1.0 | 4.0 | 0.00 | 0.00 | 0.00 | 83 | 1015.8 |
| 20260901215512 | 50 | 137 | 2.0 | 5.0 | 0.00 | 0.00 | 0.00 | 83 | 1015.7 |
| 20260901215011 | 50 | 115 | 3.0 | 5.0 | 0.00 | 0.00 | 0.00 | 84 | 1015.6 |
| 20260901214509 | 50 | 145 | 2.0 | 4.0 | 0.00 | 0.00 | 0.00 | 84 | 1015.6 |
| 20260901214013 | 50 | 147 | 3.0 | 4.0 | 0.00 | 0.00 | 0.00 | 84 | 1015.5 |
| 20260901213512 | 50 | 153 | 2.0 | 3.0 | 0.00 | 0.00 | 0.00 | 84 | 1015.6 |
| 20260901213057 | 50 | 145 | 0.0 | 3.0 | 0.00 | 0.00 | 0.00 | 84 | 1015.6 |
| 20260901212514 | 50 | 145 | 1.0 | 4.0 | 0.00 | 0.00 | 0.00 | 84 | 1015.5 |
| 20260901212014 | 50 | 145 | 2.0 | 4.0 | 0.00 | 0.00 | 0.00 | 84 | 1015.4 |
| 20260901211514 | 50 | 153 | 1.0 | 3.0 | 0.00 | 0.00 | 0.00 | 84 | 1015.3 |
| 20260901211019 | 50 | 153 | 1.0 | 3.0 | 0.00 | 0.00 | 0.00 | 84 | 1015.3 |
| 20260901210511 | 50 | 153 | 0.0 | 3.0 | 0.00 | 0.00 | 0.00 | 84 | 1015.3 |
| 20260901210033 | 50 | 189 | 2.0 | 3.0 | 0.00 | 0.00 | 0.00 | 84 | 1015.3 |
| 20260901205518 | 50 | 197 | 0.0 | 3.0 | 0.00 | 0.00 | 0.00 | 83 | 1015.2 |
| 20260901205009 | 50 | 197 | 0.0 | 5.0 | 0.00 | 0.00 | 0.00 | 83 | 1015.3 |
| 20260901204512 | 50 | 197 | 2.0 | 5.0 | 0.00 | 0.00 | 0.00 | 83 | 1015.1 |
| 20260901204012 | 50 | 185 | 4.0 | 5.0 | 0.00 | 0.00 | 0.00 | 83 | 1015.0 |
| 20260901203510 | 50 | 191 | 3.0 | 5.0 | 0.00 | 0.00 | 0.00 | 83 | 1014.9 |
| 20260901203042 | 50 | 200 | 2.0 | 5.0 | 0.00 | 0.00 | 0.00 | 83 | 1015.1 |
| 20260901202511 | 50 | 202 | 3.0 | 5.0 | 0.00 | 0.00 | 0.00 | 83 | 1015.1 |
| 20260901202017 | 50 | 185 | 3.0 | 5.0 | 0.00 | 0.00 | 0.00 | 83 | 1015.0 |
| 20260901201525 | 50 | 197 | 2.0 | 5.0 | 0.00 | 0.00 | 0.00 | 83 | 1014.8 |
| 20260901201015 | 51 | 236 | 2.0 | 8.0 | 0.00 | 0.00 | 0.00 | 83 | 1014.7 |
| 20260901200515 | 51 | 206 | 4.0 | 8.0 | 0.00 | 0.00 | 0.00 | 83 | 1014.7 |
| 20260901200031 | 51 | 206 | 4.0 | 8.0 | 0.00 | 0.00 | 0.00 | 83 | 1014.7 |
| 20260901195514 | 51 | 164 | 3.0 | 10.0 | 0.00 | 0.00 | 0.00 | 83 | 1014.7 |
| 20260901195020 | 51 | 191 | 5.0 | 11.0 | 0.00 | 0.00 | 0.00 | 83 | 1014.6 |
| 20260901194523 | 51 | 167 | 5.0 | 11.0 | 0.00 | 0.00 | 0.00 | 83 | 1014.6 |
| 20260901194020 | 51 | 185 | 5.0 | 11.0 | 0.00 | 0.00 | 0.00 | 82 | 1014.6 |
| 20260901193508 | 52 | 180 | 7.0 | 12.0 | 0.00 | 0.00 | 0.00 | 82 | 1014.5 |
| 20260901193019 | 52 | 204 | 9.0 | 13.0 | 0.00 | 0.00 | 0.00 | 81 | 1014.3 |
| 20260901192512 | 53 | 149 | 8.0 | 13.0 | 0.00 | 0.00 | 0.00 | 80 | 1014.2 |
| 20260901192013 | 54 | 214 | 8.0 | 12.0 | 0.00 | 0.00 | 0.00 | 80 | 1014.1 |
| 20260901191525 | 54 | 199 | 7.0 | 11.0 | 0.00 | 0.00 | 0.00 | 79 | 1014.1 |
| 20260901191017 | 55 | 240 | 4.0 | 8.0 | 0.00 | 0.00 | 0.00 | 78 | 1013.9 |
| 20260901190514 | 55 | 8 | 3.0 | 11.0 | 0.00 | 0.00 | 0.00 | 78 | 1013.8 |
| 20260901190029 | 55 | 29 | 5.0 | 11.0 | 0.00 | 0.00 | 0.00 | 78 | 1013.7 |
| 20260901185517 | 54 | 14 | 5.0 | 11.0 | 0.00 | 0.00 | 0.00 | 78 | 1013.7 |
| 20260901185009 | 54 | 4 | 3.0 | 11.0 | 0.00 | 0.00 | 0.00 | 78 | 1013.7 |
| 20260901184532 | 54 | 349 | 3.0 | 8.0 | 0.00 | 0.00 | 0.00 | 78 | 1013.8 |
| 20260901184017 | 55 | 26 | 2.0 | 9.0 | 0.00 | 0.00 | 0.00 | 78 | 1013.7 |
| 20260901183517 | 55 | 3 | 6.0 | 9.0 | 0.00 | 0.00 | 0.00 | 78 | 1013.7 |
| 20260901183040 | 55 | 14 | 4.0 | 9.0 | 0.00 | 0.00 | 0.00 | 78 | 1013.6 |
| 20260901182512 | 55 | 8 | 5.0 | 9.0 | 0.00 | 0.00 | 0.00 | 78 | 1013.6 |
| 20260901182019 | 55 | 356 | 5.0 | 10.0 | 0.00 | 0.00 | 0.00 | 78 | 1013.6 |
| 20260901181523 | 55 | 314 | 5.0 | 10.0 | 0.00 | 0.00 | 0.00 | 78 | 1013.6 |
| 20260901181012 | 55 | 346 | 6.0 | 11.0 | 0.00 | 0.00 | 0.00 | 77 | 1013.5 |
| 20260901180516 | 55 | 332 | 7.0 | 11.0 | 0.00 | 0.00 | 0.00 | 77 | 1013.4 |
| 20260901180025 | 55 | 341 | 7.0 | 11.0 | 0.00 | 0.00 | 0.00 | 77 | 1013.4 |
| 20260901175516 | 55 | 326 | 6.0 | 11.0 | 0.00 | 0.00 | 0.00 | 77 | 1013.6 |
| 20260901175016 | 55 | 326 | 7.0 | 14.0 | 0.00 | 0.00 | 0.00 | 77 | 1013.6 |
| 20260901174526 | 55 | 346 | 8.0 | 14.0 | 0.00 | 0.00 | 0.00 | 76 | 1013.5 |
| 20260901174018 | 55 | 358 | 7.0 | 12.0 | 0.00 | 0.00 | 0.00 | 76 | 1013.5 |
| 20260901173521 | 55 | 343 | 6.0 | 11.0 | 0.00 | 0.00 | 0.00 | 76 | 1013.7 |
| 20260901173047 | 55 | 318 | 5.0 | 10.0 | 0.00 | 0.00 | 0.00 | 76 | 1013.8 |
| 20260901172508 | 55 | 333 | 5.0 | 9.0 | 0.00 | 0.00 | 0.00 | 76 | 1013.7 |
| 20260901172003 | 55 | 333 | 6.0 | 9.0 | 0.00 | 0.00 | 0.00 | 75 | 1013.6 |
| 20260901171517 | 55 | 324 | 5.0 | 9.0 | 0.00 | 0.00 | 0.00 | 75 | 1013.7 |
| 20260901171003 | 55 | 358 | 6.0 | 11.0 | 0.00 | 0.00 | 0.00 | 75 | 1013.6 |
| 20260901170503 | 55 | 345 | 7.0 | 11.0 | 0.00 | 0.00 | 0.00 | 75 | 1013.6 |
| 20260901170005 | 55 | 12 | 6.0 | 12.0 | 0.00 | 0.00 | 0.00 | 75 | 1013.7 |
| 20260901165504 | 55 | 29 | 7.0 | 12.0 | 0.00 | 0.00 | 0.00 | 76 | 1013.6 |
| 20260901165002 | 55 | 16 | 6.0 | 10.0 | 0.00 | 0.00 | 0.00 | 76 | 1013.7 |
| 20260901164505 | 55 | 342 | 6.0 | 10.0 | 0.00 | 0.00 | 0.00 | 75 | 1013.9 |
| 20260901164003 | 55 | 318 | 4.0 | 10.0 | 0.00 | 0.00 | 0.00 | 75 | 1013.9 |
| 20260901163506 | 55 | 320 | 6.0 | 10.0 | 0.00 | 0.00 | 0.00 | 76 | 1013.9 |
| 20260901163010 | 55 | 342 | 7.0 | 10.0 | 0.00 | 0.00 | 0.00 | 75 | 1014.0 |
| 20260901162504 | 54 | 314 | 5.0 | 9.0 | 0.00 | 0.00 | 0.00 | 76 | 1013.9 |
| 20260901162008 | 54 | 324 | 4.0 | 13.0 | 0.00 | 0.00 | 0.00 | 75 | 1013.8 |
| 20260901161507 | 54 | 343 | 7.0 | 13.0 | 0.00 | 0.00 | 0.00 | 75 | 1013.8 |
| 20260901161010 | 54 | 1 | 8.0 | 12.0 | 0.00 | 0.00 | 0.00 | 74 | 1013.8 |
| 20260901160508 | 55 | 358 | 8.0 | 14.0 | 0.00 | 0.00 | 0.00 | 74 | 1013.9 |
| 20260901160006 | 55 | 340 | 8.0 | 15.0 | 0.00 | 0.00 | 0.00 | 73 | 1013.9 |
| 20260901155509 | 55 | 331 | 10.0 | 18.0 | 0.00 | 0.00 | 0.00 | 73 | 1013.9 |
| 20260901155005 | 55 | 313 | 10.0 | 18.0 | 0.00 | 0.00 | 0.00 | 73 | 1014.0 |
| 20260901154504 | 56 | 341 | 11.0 | 26.0 | 0.00 | 0.00 | 0.00 | 72 | 1014.0 |
| 20260901154004 | 56 | 342 | 11.0 | 26.0 | 0.00 | 0.00 | 0.00 | 71 | 1013.9 |
| 20260901153505 | 56 | 342 | 14.0 | 18.0 | 0.00 | 0.00 | 0.00 | 72 | 1013.9 |
| 20260901153007 | 56 | 336 | 11.0 | 18.0 | 0.00 | 0.00 | 0.00 | 71 | 1014.0 |
| 20260901152512 | 56 | 354 | 12.0 | 18.0 | 0.00 | 0.00 | 0.00 | 71 | 1013.9 |
| 20260901152004 | 56 | 330 | 11.0 | 18.0 | 0.00 | 0.00 | 0.00 | 71 | 1013.9 |
| 20260901151512 | 56 | 335 | 11.0 | 18.0 | 0.00 | 0.00 | 0.00 | 70 | 1013.9 |
| 20260901151020 | 57 | 331 | 11.0 | 22.0 | 0.00 | 0.00 | 0.00 | 70 | 1013.8 |
| 20260901150503 | 57 | 341 | 12.0 | 22.0 | 0.00 | 0.00 | 0.00 | 70 | 1013.8 |
| 20260901150014 | 57 | 345 | 12.0 | 21.0 | 0.00 | 0.00 | 0.00 | 69 | 1014.0 |
| 20260901145504 | 57 | 352 | 12.0 | 21.0 | 0.00 | 0.00 | 0.00 | 69 | 1014.0 |
| 20260901145012 | 57 | 346 | 14.0 | 22.0 | 0.00 | 0.00 | 0.00 | 69 | 1013.9 |
| 20260901144523 | 57 | 341 | 14.0 | 22.0 | 0.00 | 0.00 | 0.00 | 69 | 1013.9 |
| 20260901144004 | 57 | 351 | 12.0 | 21.0 | 0.00 | 0.00 | 0.00 | 70 | 1014.0 |
| 20260901143513 | 57 | 348 | 12.0 | 21.0 | 0.00 | 0.00 | 0.00 | 70 | 1014.0 |
| 20260901143005 | 57 | 329 | 11.0 | 19.0 | 0.00 | 0.00 | 0.00 | 70 | 1014.0 |
| 20260901142504 | 57 | 336 | 12.0 | 20.0 | 0.00 | 0.00 | 0.00 | 71 | 1014.0 |
| 20260901142006 | 57 | 22 | 12.0 | 20.0 | 0.00 | 0.00 | 0.00 | 71 | 1013.9 |
| 20260901141508 | 57 | 351 | 12.0 | 19.0 | 0.00 | 0.00 | 0.00 | 71 | 1013.9 |
| 20260901141008 | 57 | 349 | 12.0 | 20.0 | 0.00 | 0.00 | 0.00 | 70 | 1014.0 |
| 20260901140506 | 57 | 14 | 12.0 | 20.0 | 0.00 | 0.00 | 0.00 | 70 | 1014.0 |
| 20260901140005 | 57 | 16 | 11.0 | 18.0 | 0.00 | 0.00 | 0.00 | 70 | 1013.9 |
| 20260901135508 | 57 | 345 | 12.0 | 18.0 | 0.00 | 0.00 | 0.00 | 70 | 1014.0 |
| 20260901135008 | 57 | 327 | 11.0 | 19.0 | 0.00 | 0.00 | 0.00 | 71 | 1014.1 |
| 20260901134523 | 57 | 341 | 11.0 | 19.0 | 0.00 | 0.00 | 0.00 | 71 | 1014.3 |
| 20260901134019 | 57 | 1 | 9.0 | 17.0 | 0.00 | 0.00 | 0.00 | 71 | 1014.3 |
| 20260901133507 | 57 | 353 | 9.0 | 15.0 | 0.00 | 0.00 | 0.00 | 71 | 1014.2 |
| 20260901133028 | 57 | 337 | 8.0 | 13.0 | 0.00 | 0.00 | 0.00 | 71 | 1014.2 |
| 20260901132510 | 57 | 8 | 8.0 | 13.0 | 0.00 | 0.00 | 0.00 | 71 | 1014.3 |
| 20260901132004 | 57 | 21 | 8.0 | 13.0 | 0.00 | 0.00 | 0.00 | 70 | 1014.3 |
| 20260901131506 | 57 | 19 | 6.0 | 16.0 | 0.00 | 0.00 | 0.00 | 69 | 1014.4 |
| 20260901131006 | 57 | 327 | 9.0 | 16.0 | 0.00 | 0.00 | 0.00 | 68 | 1014.6 |
| 20260901130506 | 57 | 322 | 10.0 | 16.0 | 0.00 | 0.00 | 0.00 | 68 | 1014.4 |
| 20260901130018 | 57 | 3 | 10.0 | 16.0 | 0.00 | 0.00 | 0.00 | 68 | 1014.5 |
| 20260901125506 | 57 | 316 | 9.0 | 16.0 | 0.00 | 0.00 | 0.00 | 69 | 1014.5 |
| 20260901125008 | 57 | 335 | 9.0 | 19.0 | 0.00 | 0.00 | 0.00 | 69 | 1014.4 |
| 20260901124515 | 57 | 348 | 13.0 | 21.0 | 0.00 | 0.00 | 0.00 | 69 | 1014.4 |
| 20260901124010 | 57 | 342 | 13.0 | 21.0 | 0.00 | 0.00 | 0.00 | 68 | 1014.5 |
| 20260901123515 | 57 | 350 | 12.0 | 18.0 | 0.00 | 0.00 | 0.00 | 69 | 1014.4 |
| 20260901123019 | 57 | 352 | 12.0 | 19.0 | 0.00 | 0.00 | 0.00 | 69 | 1014.4 |
| 20260901122517 | 57 | 339 | 13.0 | 23.0 | 0.00 | 0.00 | 0.00 | 69 | 1014.5 |
| 20260901122012 | 57 | 12 | 13.0 | 23.0 | 0.00 | 0.00 | 0.00 | 69 | 1014.5 |
| 20260901121511 | 57 | 342 | 13.0 | 22.0 | 0.00 | 0.00 | 0.00 | 69 | 1014.6 |
| 20260901121015 | 58 | 349 | 13.0 | 23.0 | 0.00 | 0.00 | 0.00 | 68 | 1014.6 |
| 20260901120510 | 58 | 339 | 14.0 | 24.0 | 0.00 | 0.00 | 0.00 | 68 | 1014.6 |
| 20260901120048 | 58 | 337 | 15.0 | 24.0 | 0.00 | 0.00 | 0.00 | 68 | 1014.7 |
| 20260901115507 | 58 | 323 | 15.0 | 24.0 | 0.00 | 0.00 | 0.00 | 68 | 1014.9 |
| 20260901115014 | 58 | 325 | 15.0 | 23.0 | 0.00 | 0.00 | 0.00 | 68 | 1014.9 |
| 20260901114512 | 58 | 318 | 14.0 | 22.0 | 0.00 | 0.00 | 0.00 | 67 | 1015.0 |
| 20260901114007 | 59 | 322 | 14.0 | 26.0 | 0.00 | 0.00 | 0.00 | 67 | 1015.0 |
| 20260901113508 | 59 | 328 | 15.0 | 26.0 | 0.00 | 0.00 | 0.00 | 67 | 1015.2 |
| 20260901113018 | 59 | 352 | 13.0 | 23.0 | 0.00 | 0.00 | 0.00 | 67 | 1015.2 |
| 20260901112511 | 59 | 343 | 14.0 | 21.0 | 0.00 | 0.00 | 0.00 | 66 | 1015.1 |
| 20260901112011 | 58 | 339 | 12.0 | 20.0 | 0.00 | 0.00 | 0.00 | 67 | 1015.0 |
| 20260901111521 | 58 | 342 | 13.0 | 19.0 | 0.00 | 0.00 | 0.00 | 66 | 1014.8 |
| 20260901111008 | 59 | 332 | 11.0 | 23.0 | 0.00 | 0.00 | 0.00 | 66 | 1014.7 |
| 20260901110517 | 59 | 332 | 13.0 | 23.0 | 0.00 | 0.00 | 0.00 | 65 | 1014.6 |
| 20260901110019 | 59 | 347 | 12.0 | 19.0 | 0.00 | 0.00 | 0.00 | 65 | 1014.6 |
| 20260901105518 | 59 | 338 | 12.0 | 19.0 | 0.00 | 0.00 | 0.00 | 65 | 1014.6 |
| 20260901105017 | 59 | 350 | 12.0 | 21.0 | 0.00 | 0.00 | 0.00 | 64 | 1014.5 |
| 20260901104516 | 60 | 10 | 12.0 | 21.0 | 0.00 | 0.00 | 0.00 | 64 | 1014.4 |
| 20260901104022 | 60 | 341 | 12.0 | 21.0 | 0.00 | 0.00 | 0.00 | 64 | 1014.4 |
| 20260901103511 | 60 | 349 | 10.0 | 21.0 | 0.00 | 0.00 | 0.00 | 64 | 1014.5 |
| 20260901103018 | 60 | 343 | 15.0 | 21.0 | 0.00 | 0.00 | 0.00 | 63 | 1014.5 |
| 20260901102512 | 60 | 336 | 14.0 | 21.0 | 0.00 | 0.00 | 0.00 | 63 | 1014.3 |
| 20260901102013 | 60 | 336 | 13.0 | 21.0 | 0.00 | 0.00 | 0.00 | 63 | 1014.2 |
| 20260901101523 | 60 | 343 | 14.0 | 25.0 | 0.00 | 0.00 | 0.00 | 63 | 1014.3 |
| 20260901101013 | 60 | 14 | 14.0 | 25.0 | 0.00 | 0.00 | 0.00 | 62 | 1014.4 |
| 20260901100513 | 60 | 352 | 15.0 | 23.0 | 0.00 | 0.00 | 0.00 | 62 | 1014.5 |
| 20260901100026 | 61 | 345 | 14.0 | 24.0 | 0.00 | 0.00 | 0.00 | 61 | 1014.5 |
| 20260901095514 | 61 | 2 | 16.0 | 24.0 | 0.00 | 0.00 | 0.00 | 61 | 1014.3 |
| 20260901095010 | 61 | 335 | 14.0 | 27.0 | 0.00 | 0.00 | 0.00 | 61 | 1014.2 |
| 20260901094533 | 61 | 10 | 15.0 | 27.0 | 0.00 | 0.00 | 0.00 | 61 | 1014.2 |
| 20260901094013 | 61 | 18 | 12.0 | 25.0 | 0.00 | 0.00 | 0.00 | 61 | 1014.3 |
| 20260901093519 | 61 | 358 | 13.0 | 23.0 | 0.00 | 0.00 | 0.00 | 61 | 1014.4 |
| 20260901093027 | 61 | 62 | 11.0 | 21.0 | 0.00 | 0.00 | 0.00 | 62 | 1014.3 |
| 20260901092512 | 61 | 345 | 11.0 | 21.0 | 0.00 | 0.00 | 0.00 | 62 | 1014.3 |
| 20260901092011 | 61 | 349 | 11.0 | 20.0 | 0.00 | 0.00 | 0.00 | 62 | 1014.4 |
| 20260901091519 | 61 | 350 | 12.0 | 20.0 | 0.00 | 0.00 | 0.00 | 62 | 1014.5 |
| 20260901091009 | 61 | 32 | 9.0 | 18.0 | 0.00 | 0.00 | 0.00 | 62 | 1014.7 |
| 20260901090512 | 61 | 337 | 10.0 | 18.0 | 0.00 | 0.00 | 0.00 | 62 | 1014.8 |
| 20260901090023 | 61 | 23 | 8.0 | 17.0 | 0.00 | 0.00 | 0.00 | 63 | 1014.8 |
| 20260901085515 | 60 | 17 | 6.0 | 17.0 | 0.00 | 0.00 | 0.00 | 63 | 1014.8 |
| 20260901085014 | 60 | 341 | 6.0 | 16.0 | 0.00 | 0.00 | 0.00 | 63 | 1014.9 |
| 20260901084517 | 60 | 25 | 5.0 | 16.0 | 0.00 | 0.00 | 0.00 | 63 | 1014.9 |
| 20260901084014 | 60 | 355 | 6.0 | 20.0 | 0.00 | 0.00 | 0.00 | 63 | 1014.9 |
| 20260901083512 | 60 | 10 | 5.0 | 20.0 | 0.00 | 0.00 | 0.00 | 63 | 1014.9 |
| 20260901083035 | 60 | 21 | 6.0 | 15.0 | 0.00 | 0.00 | 0.00 | 63 | 1015.0 |
| 20260901082504 | 61 | 15 | 7.0 | 15.0 | 0.00 | 0.00 | 0.00 | 62 | 1015.2 |
| 20260901082010 | 61 | 347 | 9.0 | 15.0 | 0.00 | 0.00 | 0.00 | 62 | 1015.1 |
| 20260901081513 | 61 | 9 | 7.0 | 18.0 | 0.00 | 0.00 | 0.00 | 62 | 1015.1 |
| 20260901081004 | 61 | 16 | 7.0 | 18.0 | 0.00 | 0.00 | 0.00 | 62 | 1015.3 |
| 20260901080512 | 61 | 339 | 8.0 | 15.0 | 0.00 | 0.00 | 0.00 | 62 | 1015.4 |
| 20260901080009 | 61 | 360 | 9.0 | 15.0 | 0.00 | 0.00 | 0.00 | 61 | 1015.5 |
| 20260901075512 | 61 | 343 | 8.0 | 15.0 | 0.00 | 0.00 | 0.00 | 62 | 1015.5 |
| 20260901075009 | 61 | 355 | 8.0 | 18.0 | 0.00 | 0.00 | 0.00 | 61 | 1015.6 |
| 20260901074507 | 61 | 10 | 10.0 | 18.0 | 0.00 | 0.00 | 0.00 | 61 | 1015.6 |
| 20260901074004 | 61 | 10 | 9.0 | 15.0 | 0.00 | 0.00 | 0.00 | 62 | 1015.3 |
| 20260901073504 | 61 | 337 | 9.0 | 17.0 | 0.00 | 0.00 | 0.00 | 62 | 1015.3 |
| 20260901073006 | 61 | 341 | 11.0 | 20.0 | 0.00 | 0.00 | 0.00 | 61 | 1015.6 |
| 20260901072507 | 61 | 349 | 10.0 | 20.0 | 0.00 | 0.00 | 0.00 | 61 | 1015.4 |
| 20260901072006 | 61 | 341 | 10.0 | 17.0 | 0.00 | 0.00 | 0.00 | 61 | 1015.3 |
| 20260901071521 | 61 | 337 | 11.0 | 22.0 | 0.00 | 0.00 | 0.00 | 61 | 1015.4 |
| 20260901071008 | 61 | 329 | 11.0 | 22.0 | 0.00 | 0.00 | 0.00 | 61 | 1015.3 |
| 20260901070504 | 61 | 348 | 11.0 | 17.0 | 0.00 | 0.00 | 0.00 | 60 | 1015.2 |
| 20260901070023 | 62 | 343 | 13.0 | 22.0 | 0.00 | 0.00 | 0.00 | 59 | 1015.4 |
| 20260901065510 | 62 | 325 | 13.0 | 22.0 | 0.00 | 0.00 | 0.00 | 59 | 1015.3 |
| 20260901065004 | 62 | 333 | 12.0 | 22.0 | 0.00 | 0.00 | 0.00 | 58 | 1015.2 |
| 20260901064526 | 62 | 316 | 13.0 | 28.0 | 0.00 | 0.00 | 0.00 | 57 | 1015.1 |
| 20260901064007 | 62 | 344 | 15.0 | 28.0 | 0.00 | 0.00 | 0.00 | 57 | 1015.0 |
| 20260901063514 | 62 | 337 | 14.0 | 24.0 | 0.00 | 0.00 | 0.00 | 57 | 1015.0 |
| 20260901063015 | 62 | 352 | 13.0 | 29.0 | 0.00 | 0.00 | 0.00 | 57 | 1015.2 |
| 20260901062504 | 62 | 7 | 17.0 | 29.0 | 0.00 | 0.00 | 0.00 | 56 | 1015.2 |
| 20260901062011 | 63 | 345 | 15.0 | 27.0 | 0.00 | 0.00 | 0.00 | 56 | 1015.1 |
| 20260901061509 | 63 | 4 | 13.0 | 27.0 | 0.00 | 0.00 | 0.00 | 56 | 1014.8 |
| 20260901061008 | 63 | 339 | 13.0 | 27.0 | 0.00 | 0.00 | 0.00 | 57 | 1014.8 |
| 20260901060509 | 62 | 10 | 12.0 | 23.0 | 0.00 | 0.00 | 0.00 | 58 | 1014.8 |
| 20260901060012 | 62 | 24 | 10.0 | 26.0 | 0.00 | 0.00 | 0.00 | 59 | 1015.0 |
| 20260901055511 | 63 | 340 | 16.0 | 30.0 | 0.00 | 0.00 | 0.00 | 57 | 1014.9 |
| 20260901055014 | 63 | 339 | 15.0 | 31.0 | 0.00 | 0.00 | 0.00 | 57 | 1015.0 |
| 20260901054513 | 63 | 346 | 18.0 | 31.0 | 0.00 | 0.00 | 0.00 | 56 | 1015.1 |
| 20260901054013 | 63 | 23 | 16.0 | 28.0 | 0.00 | 0.00 | 0.00 | 57 | 1015.1 |
| 20260901053510 | 63 | 340 | 16.0 | 31.0 | 0.00 | 0.00 | 0.00 | 56 | 1015.1 |
| 20260901053037 | 64 | 1 | 18.0 | 32.0 | 0.00 | 0.00 | 0.00 | 56 | 1015.2 |
| 20260901052502 | 65 | 349 | 17.0 | 32.0 | 0.00 | 0.00 | 0.00 | 57 | 1015.2 |
| 20260901052007 | 64 | 341 | 16.0 | 28.0 | 0.00 | 0.00 | 0.00 | 57 | 1015.2 |
| 20260901051504 | 64 | 341 | 16.0 | 29.0 | 0.00 | 0.00 | 0.00 | 58 | 1015.2 |
| 20260901051003 | 64 | 328 | 15.0 | 31.0 | 0.00 | 0.00 | 0.00 | 55 | 1015.2 |
| 20260901050507 | 64 | 352 | 21.0 | 32.0 | 0.00 | 0.00 | 0.00 | 54 | 1015.3 |
| 20260901050004 | 64 | 333 | 20.0 | 36.0 | 0.00 | 0.00 | 0.00 | 55 | 1015.6 |